Gazi — 9HA2542 — position and weather

sailwx.info

Track history (hours):
 
Tides and Currents Weather Stations Pressure Air Temp Water Temp Dewpoint Dewpoint Depression Visibility Wind Speed Wind Dir Waves Ship Positions

Gazi

Last reported at 2018-Apr-19 08:07 UTC. Time now 2018-Apr-20 11:00 UTC.
Position N 21°56' E 121°21'.

Length 153 m; draft 9.4 m.

Type: Cargo ship. MMSI: 248841000.

Date/timePositionNaut miles runAvg speedWind from/ knotsBaromVisibWave heightAir tempDewpointWater temp
2018-Apr-19 08:07N 21°56' E 121°21'2 9.6
2018-Apr-19 07:58N 21°57' E 121°21'8 9.8
2018-Apr-19 07:07N 22°05' E 121°24'1 9.9
2018-Apr-19 07:00N 22°06' E 121°24'610.1
2018-Apr-19 06:21N 22°13' E 121°27'1210.1
2018-Apr-19 05:09N 22°24' E 121°31'2 9.9
2018-Apr-19 04:54N 22°26' E 121°32'410.2
2018-Apr-19 04:30N 22°30' E 121°34'510.1
2018-Apr-19 03:59N 22°35' E 121°36'1810.1
2018-Apr-19 02:14N 22°51' E 121°43'50310.0
2018-Apr-17 00:09N 31°14' E 122°03'412.2
2018-Apr-16 23:52N 31°15' E 121°59'514.4
2018-Apr-16 23:30N 31°16' E 121°53'2211.9
2018-Apr-16 21:38N 31°26' E 121°30'1 9.1
2018-Apr-16 21:29N 31°27' E 121°28'612.0
2018-Apr-16 21:00N 31°31' E 121°23'611.5
2018-Apr-16 20:30N 31°34' E 121°18'611.2
2018-Apr-16 20:00N 31°39' E 121°14'610.1
2018-Apr-16 19:28N 31°42' E 121°09'35 8.5
2018-Apr-16 15:23N 32°01' E 120°34'512.4
2018-Apr-16 14:57N 32°02' E 120°28'  
2018-Apr-12 20:08N 32°00' E 120°22'210.7
2018-Apr-12 19:58N 32°01' E 120°24'510.2
2018-Apr-12 19:30N 32°02' E 120°29'1011.7
2018-Apr-12 18:37N 32°00' E 120°41'411.4
2018-Apr-12 18:19N 32°01' E 120°46'2011.5
2018-Apr-12 16:35N 31°46' E 121°02'1013.3
2018-Apr-12 15:51N 31°41' E 121°11'513.5
2018-Apr-12 15:29N 31°38' E 121°15'613.1
2018-Apr-12 15:00N 31°33' E 121°20'612.0
2018-Apr-12 14:31N 31°29' E 121°26'5 9.5
2018-Apr-12 14:00N 31°26' E 121°30'4 7.9
2018-Apr-12 13:28N 31°24' E 121°34'9 9.0
2018-Apr-12 12:25N 31°18' E 121°43'913.8
2018-Apr-12 11:47N 31°12' E 121°50'513.5
2018-Apr-12 11:26N 31°09' E 121°54'511.9
2018-Apr-12 10:59N 31°06' E 121°59'814.9
2018-Apr-12 10:27N 31°03' E 122°08'3 7.1
2018-Apr-12 10:00N 31°03' E 122°12'813.6
2018-Apr-12 09:23N 31°02' E 122°22'4 9.4
2018-Apr-12 08:59N 31°01' E 122°26'610.8
2018-Apr-12 08:26N 31°00' E 122°33'2 5.2
2018-Apr-12 07:59N 30°59' E 122°35'3 0.5
2018-Apr-12 02:39N 31°01' E 122°37'0 0.0
2018-Apr-12 02:25N 31°01' E 122°37'0 0.0
2018-Apr-11 23:30N 31°01' E 122°37'0 0.0
2018-Apr-11 20:48N 31°01' E 122°37'0 0.0
2018-Apr-11 16:24N 31°01' E 122°38'0 1.1
2018-Apr-11 15:59N 31°01' E 122°38'3 5.6
2018-Apr-11 15:26N 30°58' E 122°38'610.5
2018-Apr-11 14:50N 30°54' E 122°32'412.3
2018-Apr-11 14:30N 30°52' E 122°28'812.9
2018-Apr-11 13:53N 30°48' E 122°19'613.7
2018-Apr-11 13:29N 30°43' E 122°17'  
Track history (hours):
 
Tides and Currents Weather Stations Pressure Air Temp Water Temp Dewpoint Dewpoint Depression Visibility Wind Speed Wind Dir Waves Ship Positions

Gazi

Last reported at 2018-Apr-19 08:07 UTC. Time now 2018-Apr-20 11:00 UTC.
Position N 21°56' E 121°21'.

Length 153 m; draft 9.4 m.

Type: Cargo ship. MMSI: 248841000.

Date/timePositionNaut miles runAvg speedWind from/ knotsBaromVisibWave heightAir tempDewpointWater temp
2018-Apr-19 08:07N 21°56' E 121°21'2 9.6
2018-Apr-19 07:58N 21°57' E 121°21'8 9.8
2018-Apr-19 07:07N 22°05' E 121°24'1 9.9
2018-Apr-19 07:00N 22°06' E 121°24'610.1
2018-Apr-19 06:21N 22°13' E 121°27'1210.1
2018-Apr-19 05:09N 22°24' E 121°31'2 9.9
2018-Apr-19 04:54N 22°26' E 121°32'410.2
2018-Apr-19 04:30N 22°30' E 121°34'510.1
2018-Apr-19 03:59N 22°35' E 121°36'1810.1
2018-Apr-19 02:14N 22°51' E 121°43'50310.0
2018-Apr-17 00:09N 31°14' E 122°03'412.2
2018-Apr-16 23:52N 31°15' E 121°59'514.4
2018-Apr-16 23:30N 31°16' E 121°53'2211.9
2018-Apr-16 21:38N 31°26' E 121°30'1 9.1
2018-Apr-16 21:29N 31°27' E 121°28'612.0
2018-Apr-16 21:00N 31°31' E 121°23'611.5
2018-Apr-16 20:30N 31°34' E 121°18'611.2
2018-Apr-16 20:00N 31°39' E 121°14'610.1
2018-Apr-16 19:28N 31°42' E 121°09'35 8.5
2018-Apr-16 15:23N 32°01' E 120°34'512.4
2018-Apr-16 14:57N 32°02' E 120°28'  
2018-Apr-12 20:08N 32°00' E 120°22'210.7
2018-Apr-12 19:58N 32°01' E 120°24'510.2
2018-Apr-12 19:30N 32°02' E 120°29'1011.7
2018-Apr-12 18:37N 32°00' E 120°41'411.4
2018-Apr-12 18:19N 32°01' E 120°46'2011.5
2018-Apr-12 16:35N 31°46' E 121°02'1013.3
2018-Apr-12 15:51N 31°41' E 121°11'513.5
2018-Apr-12 15:29N 31°38' E 121°15'613.1
2018-Apr-12 15:00N 31°33' E 121°20'612.0
2018-Apr-12 14:31N 31°29' E 121°26'5 9.5
2018-Apr-12 14:00N 31°26' E 121°30'4 7.9
2018-Apr-12 13:28N 31°24' E 121°34'9 9.0
2018-Apr-12 12:25N 31°18' E 121°43'913.8
2018-Apr-12 11:47N 31°12' E 121°50'513.5
2018-Apr-12 11:26N 31°09' E 121°54'511.9
2018-Apr-12 10:59N 31°06' E 121°59'814.9
2018-Apr-12 10:27N 31°03' E 122°08'3 7.1
2018-Apr-12 10:00N 31°03' E 122°12'813.6
2018-Apr-12 09:23N 31°02' E 122°22'4 9.4
2018-Apr-12 08:59N 31°01' E 122°26'610.8
2018-Apr-12 08:26N 31°00' E 122°33'2 5.2
2018-Apr-12 07:59N 30°59' E 122°35'3 0.5
2018-Apr-12 02:39N 31°01' E 122°37'0 0.0
2018-Apr-12 02:25N 31°01' E 122°37'0 0.0
2018-Apr-11 23:30N 31°01' E 122°37'0 0.0
2018-Apr-11 20:48N 31°01' E 122°37'0 0.0
2018-Apr-11 16:24N 31°01' E 122°38'0 1.1
2018-Apr-11 15:59N 31°01' E 122°38'3 5.6
2018-Apr-11 15:26N 30°58' E 122°38'610.5
2018-Apr-11 14:50N 30°54' E 122°32'412.3
2018-Apr-11 14:30N 30°52' E 122°28'812.9
2018-Apr-11 13:53N 30°48' E 122°19'613.7
2018-Apr-11 13:29N 30°43' E 122°17'  

Dump ship's entire track history